Time;durP1;ratioP1;P1;durP2;ratioP2;P2;SDS_P1;SDS_P2;PMS_P1;PMS_P2;Temp;Humidity;BMP_temperature;BMP_pressure;BME280_temperature;BME280_humidity;BME280_pressure;Samples;Min_cycle;Max_cycle;Signal;HPM_P1;HPM_P2
2021/08/06 00:00:52;;;;;;;14.23;8.40;;;;;;;;;;5014755;28;20033;-83
2021/08/06 00:03:20;;;;;;;15.73;8.73;;;;;;;;;;5010489;28;20053;-83
2021/08/06 00:05:47;;;;;;;11.48;8.73;;;;;;;;;;5013647;28;20434;-84
2021/08/06 00:08:14;;;;;;;12.70;9.25;;;;;;;;;;5024604;28;20095;-83
2021/08/06 00:10:42;;;;;;;11.10;8.18;;;;;;;;;;5011524;28;20129;-83
2021/08/06 00:13:09;;;;;;;10.95;8.93;;;;;;;;;;5003322;28;20030;-82
2021/08/06 00:15:36;;;;;;;13.38;10.15;;;;;;;;;;5011678;28;20045;-84
2021/08/06 00:18:03;;;;;;;11.65;9.60;;;;;;;;;;5020884;28;20093;-83
2021/08/06 00:20:30;;;;;;;13.60;10.18;;;;;;;;;;5018953;28;20144;-83
2021/08/06 00:22:58;;;;;;;16.30;10.52;;;;;;;;;;5021960;28;20500;-82
2021/08/06 00:25:27;;;;;;;14.60;11.10;;;;;;;;;;5011403;28;20517;-83
2021/08/06 00:27:54;;;;;;;17.25;10.88;;;;;;;;;;5039076;28;20269;-82
2021/08/06 00:30:21;;;;;;;16.33;10.40;;;;;;;;;;5032974;28;20102;-82
2021/08/06 00:32:48;;;;;;;20.13;11.05;;;;;;;;;;5035646;28;20038;-82
2021/08/06 00:35:16;;;;;;;13.73;9.98;;;;;;;;;;5017059;28;20074;-82
2021/08/06 00:37:45;;;;;;;15.35;10.93;;;;;;;;;;5041362;28;20419;-83
2021/08/06 00:40:13;;;;;;;17.60;10.85;;;;;;;;;;5018637;28;20038;-82
2021/08/06 00:42:41;;;;;;;15.25;11.15;;;;;;;;;;5015464;28;20042;-82
2021/08/06 00:45:08;;;;;;;18.05;11.95;;;;;;;;;;5036388;28;20546;-82
2021/08/06 00:47:36;;;;;;;14.68;10.88;;;;;;;;;;5018036;28;20491;-82
2021/08/06 00:50:04;;;;;;;;;;;;;;;;;;5033880;28;20179;-82
2021/08/06 00:52:30;;;;;;;;;;;;;;;;;;5003659;28;20438;-82
2021/08/06 00:54:58;;;;;;;15.05;11.45;;;;;;;;;;4994555;28;19974;-81
2021/08/06 00:57:25;;;;;;;15.77;10.75;;;;;;;;;;5018901;28;20042;-82
2021/08/06 00:59:52;;;;;;;16.23;10.80;;;;;;;;;;5035902;28;20040;-82
2021/08/06 01:02:37;;;;;;;14.38;10.48;;;;;;;;;;5008974;28;20072;-82
2021/08/06 01:05:14;;;;;;;15.45;11.15;;;;;;;;;;5013415;28;20037;-81
2021/08/06 01:08:10;;;;;;;16.80;10.10;;;;;;;;;;5036566;28;20482;-81
2021/08/06 01:10:59;;;;;;;17.38;10.38;;;;;;;;;;5021554;28;20512;-83
2021/08/06 01:13:37;;;;;;;14.90;10.65;;;;;;;;;;5019295;28;20033;-82
2021/08/06 01:16:08;;;;;;;17.77;11.10;;;;;;;;;;5021499;28;20038;-81
2021/08/06 01:18:40;;;;;;;18.55;11.73;;;;;;;;;;5036370;28;21191;-82
2021/08/06 01:21:14;;;;;;;18.08;12.15;;;;;;;;;;4990111;28;20088;-81
2021/08/06 01:23:42;;;;;;;17.15;12.23;;;;;;;;;;5021592;28;20037;-82
2021/08/06 01:26:19;;;;;;;16.52;11.05;;;;;;;;;;5022967;28;20053;-81
2021/08/06 01:28:50;;;;;;;17.30;11.65;;;;;;;;;;5022883;28;20065;-82
2021/08/06 01:31:25;;;;;;;18.25;11.82;;;;;;;;;;5037411;28;20045;-81
2021/08/06 01:33:52;;;;;;;17.33;11.23;;;;;;;;;;5020913;28;20111;-87
2021/08/06 01:36:19;;;;;;;17.58;11.23;;;;;;;;;;5023378;28;20045;-85
2021/08/06 01:38:47;;;;;;;18.88;13.70;;;;;;;;;;5003855;28;20132;-88
2021/08/06 01:41:31;;;;;;;19.27;13.55;;;;;;;;;;5001967;28;20117;-87
2021/08/06 01:44:17;;;;;;;18.58;11.82;;;;;;;;;;5002002;28;20129;-88
2021/08/06 01:47:08;;;;;;;17.00;11.70;;;;;;;;;;4983325;28;20046;-86
2021/08/06 01:49:43;;;;;;;20.05;12.00;;;;;;;;;;4987587;28;20652;-85
2021/08/06 01:52:18;;;;;;;16.08;11.95;;;;;;;;;;4971414;28;22656;-87
2021/08/06 01:54:49;;;;;;;19.92;13.40;;;;;;;;;;5002147;28;20083;-85
2021/08/06 01:59:51;;;;;;;17.85;11.52;;;;;;;;;;5059568;27;20418;-80
2021/08/06 02:02:19;;;;;;;18.35;11.52;;;;;;;;;;5060220;28;20052;-80
2021/08/06 02:04:47;;;;;;;17.92;11.70;;;;;;;;;;5058952;28;20044;-80
2021/08/06 02:07:18;;;;;;;17.90;11.38;;;;;;;;;;5072761;28;20140;-81
2021/08/06 02:09:46;;;;;;;17.00;12.45;;;;;;;;;;5055809;28;20037;-75
2021/08/06 02:12:14;;;;;;;22.20;12.77;;;;;;;;;;5054044;28;20064;-77
2021/08/06 02:14:43;;;;;;;17.70;13.15;;;;;;;;;;5057993;28;20418;-75
2021/08/06 02:17:12;;;;;;;18.52;12.13;;;;;;;;;;5058426;28;20045;-76
2021/08/06 02:19:40;;;;;;;19.05;11.70;;;;;;;;;;5059748;28;20467;-76
2021/08/06 02:22:09;;;;;;;23.48;15.38;;;;;;;;;;5037425;28;20048;-76
2021/08/06 02:24:39;;;;;;;26.90;15.80;;;;;;;;;;5058193;28;20060;-75
2021/08/06 02:27:07;;;;;;;20.85;14.93;;;;;;;;;;5058807;28;20048;-76
2021/08/06 02:29:36;;;;;;;26.88;17.02;;;;;;;;;;5033622;28;20044;-78
2021/08/06 02:32:04;;;;;;;22.52;14.73;;;;;;;;;;5057433;28;20094;-77
2021/08/06 02:34:32;;;;;;;19.25;13.20;;;;;;;;;;5058087;28;20462;-76
2021/08/06 02:36:59;;;;;;;25.17;17.13;;;;;;;;;;5058770;28;20075;-77
2021/08/06 02:39:28;;;;;;;23.88;17.27;;;;;;;;;;5057930;28;20672;-75
2021/08/06 02:41:57;;;;;;;28.52;18.15;;;;;;;;;;5057214;28;20127;-75
2021/08/06 02:44:25;;;;;;;28.70;18.58;;;;;;;;;;5057347;28;20048;-78
2021/08/06 02:46:53;;;;;;;27.38;17.52;;;;;;;;;;5056879;28;20048;-75
2021/08/06 02:49:20;;;;;;;26.77;17.40;;;;;;;;;;5054458;28;20079;-76
2021/08/06 02:51:47;;;;;;;27.08;16.55;;;;;;;;;;5039843;28;20057;-77
2021/08/06 02:54:15;;;;;;;26.00;16.80;;;;;;;;;;5058985;28;20072;-76
2021/08/06 02:56:42;;;;;;;24.42;15.80;;;;;;;;;;5057434;28;20075;-76
2021/08/06 02:59:09;;;;;;;24.60;15.85;;;;;;;;;;5056728;28;20222;-75
2021/08/06 03:01:36;;;;;;;23.90;15.15;;;;;;;;;;5040165;28;20082;-76
2021/08/06 03:04:03;;;;;;;22.70;16.48;;;;;;;;;;5056384;28;20419;-77
2021/08/06 03:06:31;;;;;;;22.63;14.75;;;;;;;;;;5059467;28;20083;-76
2021/08/06 03:08:57;;;;;;;24.05;16.00;;;;;;;;;;5055990;28;20050;-75
2021/08/06 03:11:25;;;;;;;21.75;14.45;;;;;;;;;;5043814;28;21211;-76
2021/08/06 03:13:52;;;;;;;23.50;15.30;;;;;;;;;;5027165;28;20131;-75
2021/08/06 03:16:19;;;;;;;20.45;13.43;;;;;;;;;;5045833;28;20488;-76
2021/08/06 03:18:46;;;;;;;19.73;12.43;;;;;;;;;;5045847;28;20045;-75
2021/08/06 03:21:13;;;;;;;19.55;13.43;;;;;;;;;;5045277;28;20040;-76
2021/08/06 03:23:40;;;;;;;17.85;13.55;;;;;;;;;;5045588;28;20082;-76
2021/08/06 03:26:07;;;;;;;19.05;12.52;;;;;;;;;;5043882;28;20148;-76
2021/08/06 03:28:34;;;;;;;18.88;12.48;;;;;;;;;;5044924;28;20057;-76
2021/08/06 03:31:01;;;;;;;20.80;13.02;;;;;;;;;;5060087;28;20538;-76
2021/08/06 03:33:28;;;;;;;23.27;16.80;;;;;;;;;;5044952;28;20059;-77
2021/08/06 03:35:55;;;;;;;21.27;14.95;;;;;;;;;;5043573;28;20045;-75
2021/08/06 03:38:24;;;;;;;18.33;12.07;;;;;;;;;;5045177;28;20037;-75
2021/08/06 03:40:53;;;;;;;15.43;10.57;;;;;;;;;;5044572;28;20045;-76
2021/08/06 03:43:21;;;;;;;17.70;11.52;;;;;;;;;;5041311;28;20127;-75
2021/08/06 03:45:49;;;;;;;18.02;12.63;;;;;;;;;;5043902;28;20044;-76
2021/08/06 03:48:16;;;;;;;17.63;12.73;;;;;;;;;;5044128;28;20041;-76
2021/08/06 03:50:44;;;;;;;17.30;11.85;;;;;;;;;;5042153;28;20053;-77
2021/08/06 03:53:11;;;;;;;15.02;10.55;;;;;;;;;;5045257;28;20041;-75
2021/08/06 03:55:39;;;;;;;16.55;11.52;;;;;;;;;;5043933;28;20084;-76
2021/08/06 03:58:06;;;;;;;15.35;11.15;;;;;;;;;;5042650;28;20048;-76
2021/08/06 04:00:38;;;;;;;19.88;13.52;;;;;;;;;;5044690;28;20049;-76
2021/08/06 04:03:08;;;;;;;16.38;11.63;;;;;;;;;;5043338;28;20044;-76
2021/08/06 04:05:35;;;;;;;19.65;11.60;;;;;;;;;;5044505;28;20064;-76
2021/08/06 04:08:09;;;;;;;17.10;11.57;;;;;;;;;;5044300;28;21055;-76
2021/08/06 04:10:37;;;;;;;16.00;10.82;;;;;;;;;;5043337;28;20102;-76
2021/08/06 04:13:04;;;;;;;15.65;10.82;;;;;;;;;;5043402;28;20044;-76
2021/08/06 04:15:32;;;;;;;15.75;11.23;;;;;;;;;;5044796;28;20037;-77
2021/08/06 04:17:59;;;;;;;16.88;11.30;;;;;;;;;;5059221;28;20090;-75
2021/08/06 04:20:26;;;;;;;16.98;12.02;;;;;;;;;;5042080;28;20068;-77
2021/08/06 04:22:53;;;;;;;16.67;11.07;;;;;;;;;;5059130;28;20047;-76
2021/08/06 04:25:21;;;;;;;18.45;11.38;;;;;;;;;;5044493;28;20064;-76
2021/08/06 04:27:48;;;;;;;15.75;10.77;;;;;;;;;;5045372;28;20072;-75
2021/08/06 04:30:15;;;;;;;17.05;10.85;;;;;;;;;;5043769;28;20037;-76
2021/08/06 04:32:43;;;;;;;15.98;10.25;;;;;;;;;;5043600;28;20095;-78
2021/08/06 04:35:10;;;;;;;16.48;10.35;;;;;;;;;;5043818;28;20063;-76
2021/08/06 04:37:58;;;;;;;16.38;10.25;;;;;;;;;;5043584;28;20060;-76
2021/08/06 04:40:26;;;;;;;17.10;10.82;;;;;;;;;;5035707;28;20128;-75
2021/08/06 04:42:53;;;;;;;14.35;10.18;;;;;;;;;;5043371;28;20045;-76
2021/08/06 04:45:20;;;;;;;16.42;10.25;;;;;;;;;;5044565;28;20033;-76
2021/08/06 04:47:50;;;;;;;15.93;10.48;;;;;;;;;;5042383;28;20554;-75
2021/08/06 04:50:20;;;;;;;17.00;10.65;;;;;;;;;;5043817;28;20107;-76
2021/08/06 04:52:47;;;;;;;15.18;10.63;;;;;;;;;;5042804;28;20419;-75
2021/08/06 04:55:14;;;;;;;16.15;10.15;;;;;;;;;;5044212;28;20037;-75
2021/08/06 04:57:51;;;;;;;15.25;10.30;;;;;;;;;;5028675;28;20057;-76
2021/08/06 05:00:31;;;;;;;13.68;10.02;;;;;;;;;;5032461;28;20102;-74
2021/08/06 05:02:58;;;;;;;19.70;11.75;;;;;;;;;;5032051;28;20063;-75
2021/08/06 05:05:25;;;;;;;15.48;10.63;;;;;;;;;;5041342;28;20087;-74
2021/08/06 05:07:54;;;;;;;19.15;12.70;;;;;;;;;;5042854;28;20053;-75
2021/08/06 05:10:24;;;;;;;16.00;10.68;;;;;;;;;;5043481;28;20043;-74
2021/08/06 05:12:51;;;;;;;16.58;11.90;;;;;;;;;;5043055;28;20103;-74
2021/08/06 05:15:18;;;;;;;20.88;12.00;;;;;;;;;;5043436;28;20049;-75
2021/08/06 05:17:46;;;;;;;22.90;13.48;;;;;;;;;;5042064;28;20120;-75
2021/08/06 05:20:13;;;;;;;23.58;16.08;;;;;;;;;;5043312;28;20033;-75
2021/08/06 05:22:40;;;;;;;23.60;15.10;;;;;;;;;;5041889;28;20096;-75
2021/08/06 05:25:08;;;;;;;22.95;14.40;;;;;;;;;;5041631;28;20130;-75
2021/08/06 05:27:35;;;;;;;28.67;18.10;;;;;;;;;;5041309;28;20060;-74
2021/08/06 05:30:02;;;;;;;30.92;19.30;;;;;;;;;;5043000;28;20521;-74
2021/08/06 05:32:30;;;;;;;;;;;;;;;;;;5042043;28;20458;-75
2021/08/06 05:34:57;;;;;;;61.40;39.70;;;;;;;;;;5024918;28;19916;-74
2021/08/06 05:37:24;;;;;;;38.42;24.23;;;;;;;;;;5042438;28;20045;-75
2021/08/06 05:39:51;;;;;;;46.58;31.20;;;;;;;;;;5042459;28;20407;-75
2021/08/06 05:42:19;;;;;;;43.10;29.00;;;;;;;;;;5041879;28;20037;-74
2021/08/06 05:44:46;;;;;;;68.72;45.83;;;;;;;;;;5024473;28;20052;-75
2021/08/06 05:47:13;;;;;;;59.80;40.35;;;;;;;;;;5042882;28;20033;-78
2021/08/06 05:49:40;;;;;;;63.85;41.53;;;;;;;;;;5042620;28;20064;-74
2021/08/06 05:52:07;;;;;;;67.88;41.88;;;;;;;;;;5042406;28;20049;-76
2021/08/06 05:54:37;;;;;;;63.95;42.55;;;;;;;;;;5041418;28;20040;-78
2021/08/06 05:57:04;;;;;;;61.42;41.13;;;;;;;;;;5042455;28;20041;-75
2021/08/06 05:59:32;;;;;;;60.40;37.55;;;;;;;;;;5042599;28;20559;-76
2021/08/06 06:01:59;;;;;;;52.83;36.15;;;;;;;;;;5042508;28;20055;-74
2021/08/06 06:04:26;;;;;;;64.93;42.88;;;;;;;;;;5042681;28;20045;-73
2021/08/06 06:06:53;;;;;;;70.68;46.75;;;;;;;;;;5042849;28;21461;-75
2021/08/06 06:09:20;;;;;;;169.68;110.43;;;;;;;;;;5040804;28;20045;-76
2021/08/06 06:11:47;;;;;;;94.30;63.08;;;;;;;;;;5040593;28;20068;-76
2021/08/06 06:14:15;;;;;;;162.50;107.80;;;;;;;;;;5042842;28;20044;-75
2021/08/06 06:16:42;;;;;;;216.05;145.68;;;;;;;;;;5041101;28;20045;-76
2021/08/06 06:19:10;;;;;;;261.60;183.30;;;;;;;;;;5041222;28;22125;-75
2021/08/06 06:21:37;;;;;;;266.70;178.38;;;;;;;;;;5042601;28;20065;-75
2021/08/06 06:24:04;;;;;;;256.05;170.63;;;;;;;;;;5040111;28;20547;-75
2021/08/06 06:26:31;;;;;;;259.02;170.50;;;;;;;;;;5042562;28;20052;-75
2021/08/06 06:28:58;;;;;;;259.98;167.75;;;;;;;;;;5040489;28;20049;-75
2021/08/06 06:31:26;;;;;;;242.52;159.23;;;;;;;;;;5042809;28;20033;-75
2021/08/06 06:33:53;;;;;;;227.02;145.43;;;;;;;;;;5040673;28;20503;-77
2021/08/06 06:36:20;;;;;;;204.32;130.35;;;;;;;;;;5042084;28;20573;-74
2021/08/06 06:38:47;;;;;;;203.68;130.45;;;;;;;;;;5043191;28;20452;-75
2021/08/06 06:41:14;;;;;;;203.73;128.85;;;;;;;;;;5039865;28;20156;-75
2021/08/06 06:43:41;;;;;;;175.38;118.78;;;;;;;;;;5042739;28;20128;-75
2021/08/06 06:46:08;;;;;;;175.10;114.95;;;;;;;;;;5045168;28;20044;-75
2021/08/06 06:48:36;;;;;;;182.13;114.97;;;;;;;;;;5044208;28;20049;-76
2021/08/06 06:51:03;;;;;;;176.68;112.30;;;;;;;;;;5044843;28;20041;-75
2021/08/06 06:53:30;;;;;;;159.43;99.07;;;;;;;;;;5045519;28;20562;-75
2021/08/06 06:55:57;;;;;;;138.68;85.95;;;;;;;;;;5043648;28;20095;-76
2021/08/06 06:58:25;;;;;;;141.10;89.38;;;;;;;;;;5044025;28;20049;-77
2021/08/06 07:00:54;;;;;;;130.70;82.10;;;;;;;;;;5045572;28;20041;-76
2021/08/06 07:03:21;;;;;;;;;;;;;;;;;;5045119;28;20041;-74
2021/08/06 07:05:48;;;;;;;109.97;69.45;;;;;;;;;;5045615;28;19916;-74
2021/08/06 07:08:15;;;;;;;112.60;67.28;;;;;;;;;;5045354;28;20128;-76
2021/08/06 07:10:42;;;;;;;106.72;67.18;;;;;;;;;;5046005;28;20102;-75
2021/08/06 07:13:09;;;;;;;103.28;66.57;;;;;;;;;;5045113;28;20048;-74
2021/08/06 07:15:36;;;;;;;105.18;65.35;;;;;;;;;;5046163;28;20029;-75
2021/08/06 07:18:04;;;;;;;98.45;60.47;;;;;;;;;;5043305;28;20045;-74
2021/08/06 07:20:31;;;;;;;96.05;60.47;;;;;;;;;;5045504;28;20064;-75
2021/08/06 07:22:58;;;;;;;102.35;65.75;;;;;;;;;;5045607;28;20036;-75
2021/08/06 07:25:25;;;;;;;99.35;63.65;;;;;;;;;;5045059;28;20037;-75
2021/08/06 07:27:52;;;;;;;104.53;63.47;;;;;;;;;;5045310;28;20135;-75
2021/08/06 07:30:19;;;;;;;104.35;64.80;;;;;;;;;;5026422;28;20041;-74
2021/08/06 07:32:47;;;;;;;100.25;62.00;;;;;;;;;;5026036;28;20052;-75
2021/08/06 07:35:16;;;;;;;112.45;65.53;;;;;;;;;;5043657;28;20041;-74
2021/08/06 07:37:43;;;;;;;;;;;;;;;;;;5027568;28;20045;-77
2021/08/06 07:40:12;;;;;;;102.18;68.18;;;;;;;;;;5043480;28;20038;-75
2021/08/06 07:42:39;;;;;;;104.93;64.68;;;;;;;;;;5044210;28;20037;-74
2021/08/06 07:45:10;;;;;;;99.88;64.60;;;;;;;;;;5045492;28;20120;-75
2021/08/06 07:47:37;;;;;;;101.70;61.72;;;;;;;;;;5044686;28;20061;-75
2021/08/06 07:50:05;;;;;;;98.13;61.00;;;;;;;;;;5045603;28;20041;-75
2021/08/06 07:52:32;;;;;;;105.63;61.97;;;;;;;;;;5045186;28;20123;-75
2021/08/06 07:54:59;;;;;;;102.03;60.38;;;;;;;;;;5042881;28;20052;-76
2021/08/06 07:57:26;;;;;;;116.72;62.03;;;;;;;;;;5043243;28;20537;-76
2021/08/06 07:59:54;;;;;;;109.28;59.88;;;;;;;;;;5044819;28;20132;-75
2021/08/06 08:02:23;;;;;;;108.38;58.38;;;;;;;;;;5044075;28;20068;-76
2021/08/06 08:04:50;;;;;;;107.90;61.42;;;;;;;;;;5044820;28;20403;-75
2021/08/06 08:07:30;;;;;;;107.97;55.45;;;;;;;;;;5028108;28;20045;-75
2021/08/06 08:09:57;;;;;;;99.30;52.88;;;;;;;;;;5043252;28;20599;-77
2021/08/06 08:12:24;;;;;;;89.97;50.20;;;;;;;;;;5043057;28;20473;-76
2021/08/06 08:14:54;;;;;;;80.93;44.25;;;;;;;;;;5042702;28;20120;-75
2021/08/06 08:17:21;;;;;;;66.65;38.50;;;;;;;;;;5042973;28;20041;-77
2021/08/06 08:19:48;;;;;;;67.90;35.05;;;;;;;;;;5042799;28;20489;-75
2021/08/06 08:22:15;;;;;;;54.47;34.20;;;;;;;;;;5042978;28;20411;-75
2021/08/06 08:24:44;;;;;;;62.45;35.30;;;;;;;;;;5042845;28;22598;-76
2021/08/06 08:27:10;;;;;;;;;;;;;;;;;;5026574;28;20032;-77
2021/08/06 08:29:41;;;;;;;79.70;43.65;;;;;;;;;;5043469;28;20294;-75
2021/08/06 08:32:08;;;;;;;65.75;38.38;;;;;;;;;;5043109;28;20388;-75
2021/08/06 08:34:35;;;;;;;65.72;34.40;;;;;;;;;;5043347;28;20080;-75
2021/08/06 08:37:02;;;;;;;58.33;34.08;;;;;;;;;;5042767;28;20037;-75
2021/08/06 08:39:30;;;;;;;62.00;37.33;;;;;;;;;;5041475;28;20407;-76
2021/08/06 08:42:00;;;;;;;56.85;34.15;;;;;;;;;;5044273;28;20486;-75
2021/08/06 08:44:38;;;;;;;54.88;33.70;;;;;;;;;;5043531;28;20533;-75
2021/08/06 08:47:06;;;;;;;56.13;32.88;;;;;;;;;;5042206;28;20127;-76
2021/08/06 08:49:38;;;;;;;55.53;33.03;;;;;;;;;;5041603;28;20053;-75
2021/08/06 08:52:06;;;;;;;58.47;33.28;;;;;;;;;;5041790;28;20048;-75
2021/08/06 08:54:33;;;;;;;67.38;37.05;;;;;;;;;;5044018;28;20041;-75
2021/08/06 08:57:00;;;;;;;67.80;38.35;;;;;;;;;;5043699;28;20072;-75
2021/08/06 08:59:29;;;;;;;70.45;40.42;;;;;;;;;;5041832;28;20855;-77
2021/08/06 09:01:56;;;;;;;73.97;43.38;;;;;;;;;;5043891;28;20061;-76
2021/08/06 09:04:27;;;;;;;75.90;44.63;;;;;;;;;;5043316;28;20068;-75
2021/08/06 09:06:55;;;;;;;73.32;42.97;;;;;;;;;;5041884;28;20040;-75
2021/08/06 09:09:24;;;;;;;63.35;35.40;;;;;;;;;;5043144;28;20048;-76
2021/08/06 09:12:09;;;;;;;73.38;41.72;;;;;;;;;;5042434;28;20036;-75
2021/08/06 09:14:37;;;;;;;73.97;41.10;;;;;;;;;;5043444;28;20422;-75
2021/08/06 09:17:11;;;;;;;78.13;44.35;;;;;;;;;;5041520;28;20037;-75
2021/08/06 09:19:43;;;;;;;72.40;40.63;;;;;;;;;;5042493;28;20064;-75
2021/08/06 09:22:21;;;;;;;68.50;38.88;;;;;;;;;;5041523;28;20040;-75
2021/08/06 09:25:07;;;;;;;68.85;38.67;;;;;;;;;;5042165;28;20044;-76
2021/08/06 09:27:48;;;;;;;67.95;38.40;;;;;;;;;;5041061;28;20098;-76
2021/08/06 09:30:32;;;;;;;66.43;36.85;;;;;;;;;;5040977;28;20522;-75
2021/08/06 09:32:59;;;;;;;57.55;33.75;;;;;;;;;;5041255;28;20040;-75
2021/08/06 09:35:29;;;;;;;52.58;31.05;;;;;;;;;;5042976;28;20059;-76
2021/08/06 09:37:58;;;;;;;53.33;30.23;;;;;;;;;;5041012;28;20064;-75
2021/08/06 09:40:29;;;;;;;49.03;28.13;;;;;;;;;;5042546;28;20469;-74
2021/08/06 09:43:00;;;;;;;45.35;26.58;;;;;;;;;;5040418;28;20052;-74
2021/08/06 09:45:34;;;;;;;45.03;25.33;;;;;;;;;;5042479;28;20506;-76
2021/08/06 09:48:03;;;;;;;42.55;26.60;;;;;;;;;;5042711;28;20064;-75
2021/08/06 09:50:35;;;;;;;45.05;27.75;;;;;;;;;;5040713;28;20045;-75
2021/08/06 09:53:04;;;;;;;44.35;25.02;;;;;;;;;;5040829;28;20044;-75
2021/08/06 09:55:35;;;;;;;;;;;;;;;;;;5042877;28;20148;-75
2021/08/06 09:58:07;;;;;;;40.22;24.92;;;;;;;;;;5040820;28;19921;-74
2021/08/06 10:00:49;;;;;;;42.15;25.73;;;;;;;;;;5042050;28;20045;-76
2021/08/06 10:03:37;;;;;;;44.80;24.92;;;;;;;;;;5042366;28;20506;-74
2021/08/06 10:06:10;;;;;;;42.47;24.20;;;;;;;;;;5039562;28;20449;-74
2021/08/06 10:08:37;;;;;;;40.15;25.08;;;;;;;;;;5042588;28;20491;-74
2021/08/06 10:11:05;;;;;;;42.45;24.33;;;;;;;;;;5042527;28;20481;-74
2021/08/06 10:13:32;;;;;;;40.90;24.75;;;;;;;;;;5043066;28;20499;-76
2021/08/06 10:16:01;;;;;;;51.10;28.42;;;;;;;;;;5042228;28;20369;-74
2021/08/06 10:18:28;;;;;;;41.50;25.20;;;;;;;;;;5040609;28;20108;-74
2021/08/06 10:20:55;;;;;;;50.70;28.73;;;;;;;;;;5045729;28;20087;-74
2021/08/06 10:23:22;;;;;;;43.38;27.58;;;;;;;;;;5042138;28;20041;-74
2021/08/06 10:25:49;;;;;;;44.42;27.25;;;;;;;;;;5047024;28;20103;-74
2021/08/06 10:28:16;;;;;;;47.15;28.00;;;;;;;;;;5045090;28;20041;-74
2021/08/06 10:30:44;;;;;;;44.17;27.63;;;;;;;;;;5046758;28;20057;-75
2021/08/06 10:33:27;;;;;;;46.25;29.23;;;;;;;;;;5046150;28;20503;-74
2021/08/06 10:35:56;;;;;;;48.45;30.55;;;;;;;;;;5046699;28;20457;-74
2021/08/06 10:38:40;;;;;;;52.13;29.70;;;;;;;;;;5046382;28;20144;-74
2021/08/06 10:41:23;;;;;;;48.20;29.98;;;;;;;;;;5044636;28;20466;-77
2021/08/06 10:43:59;;;;;;;48.25;31.88;;;;;;;;;;5046969;28;20069;-74
2021/08/06 10:47:05;;;;;;;47.50;30.25;;;;;;;;;;5045526;28;20040;-74
2021/08/06 10:49:33;;;;;;;46.28;29.65;;;;;;;;;;5044866;28;20037;-74
2021/08/06 10:52:20;;;;;;;46.42;29.73;;;;;;;;;;5043334;28;20419;-74
2021/08/06 10:54:49;;;;;;;42.35;27.05;;;;;;;;;;5042535;28;20124;-75
2021/08/06 10:57:20;;;;;;;41.05;28.20;;;;;;;;;;5045597;28;20041;-75
2021/08/06 10:59:49;;;;;;;46.90;28.90;;;;;;;;;;5043117;28;20041;-74
2021/08/06 11:02:37;;;;;;;42.25;27.48;;;;;;;;;;5045259;28;20132;-76
2021/08/06 11:05:38;;;;;;;45.03;29.80;;;;;;;;;;5044258;28;20098;-75
2021/08/06 11:08:42;;;;;;;48.72;30.08;;;;;;;;;;5044157;28;20128;-75
2021/08/06 11:11:09;;;;;;;44.25;28.38;;;;;;;;;;5045195;28;20044;-74
2021/08/06 11:13:37;;;;;;;45.80;28.52;;;;;;;;;;5043553;28;20053;-76
2021/08/06 11:16:10;;;;;;;49.42;31.23;;;;;;;;;;5044755;28;20057;-75
2021/08/06 11:18:46;;;;;;;55.92;30.30;;;;;;;;;;5046010;28;20128;-74
2021/08/06 11:21:14;;;;;;;44.15;28.75;;;;;;;;;;5044406;28;20041;-75
2021/08/06 11:23:42;;;;;;;47.85;30.92;;;;;;;;;;5045221;28;20045;-76
2021/08/06 11:26:12;;;;;;;42.28;27.70;;;;;;;;;;5046327;28;20060;-76
2021/08/06 11:28:39;;;;;;;47.25;27.33;;;;;;;;;;5045303;28;20538;-77
2021/08/06 11:31:17;;;;;;;41.25;25.77;;;;;;;;;;5043572;28;20068;-76
2021/08/06 11:33:44;;;;;;;43.88;28.67;;;;;;;;;;5043713;28;21739;-74
2021/08/06 11:36:18;;;;;;;48.88;26.90;;;;;;;;;;5045897;28;20056;-74
2021/08/06 11:38:46;;;;;;;46.10;26.27;;;;;;;;;;5045313;28;20087;-76
2021/08/06 11:41:13;;;;;;;40.15;26.67;;;;;;;;;;5043538;28;20443;-76
2021/08/06 11:43:40;;;;;;;36.67;25.65;;;;;;;;;;5046094;28;20427;-73
2021/08/06 11:46:10;;;;;;;37.88;24.98;;;;;;;;;;5045559;28;20041;-75
2021/08/06 11:48:59;;;;;;;37.65;24.20;;;;;;;;;;5045120;28;20037;-75
2021/08/06 11:51:26;;;;;;;36.60;22.08;;;;;;;;;;5043912;28;20044;-75
2021/08/06 11:53:53;;;;;;;33.95;22.65;;;;;;;;;;5043561;28;20045;-75
2021/08/06 11:56:22;;;;;;;35.75;24.52;;;;;;;;;;5043593;28;20037;-75
2021/08/06 11:58:50;;;;;;;34.28;21.52;;;;;;;;;;5044756;28;20041;-75
2021/08/06 12:01:20;;;;;;;41.58;22.98;;;;;;;;;;5044851;28;20438;-75
2021/08/06 12:03:51;;;;;;;32.55;21.17;;;;;;;;;;5043770;28;20040;-75
2021/08/06 12:06:20;;;;;;;40.40;24.63;;;;;;;;;;5045888;28;20049;-76
2021/08/06 12:08:58;;;;;;;37.78;23.05;;;;;;;;;;5043577;28;20037;-74
2021/08/06 12:11:27;;;;;;;35.83;22.52;;;;;;;;;;5045302;28;20093;-74
2021/08/06 12:14:02;;;;;;;37.15;21.83;;;;;;;;;;5044742;28;20040;-74
2021/08/06 12:16:36;;;;;;;;;;;;;;;;;;5043668;28;20059;-74
2021/08/06 12:19:04;;;;;;;35.63;22.20;;;;;;;;;;5043239;28;19962;-74
2021/08/06 12:21:37;;;;;;;29.98;19.33;;;;;;;;;;5044828;28;20040;-74
2021/08/06 12:24:12;;;;;;;30.13;20.52;;;;;;;;;;5045097;28;20070;-74
2021/08/06 12:26:40;;;;;;;32.70;20.83;;;;;;;;;;5042984;28;20045;-74
2021/08/06 12:29:30;;;;;;;26.73;19.88;;;;;;;;;;5042993;28;20041;-74
2021/08/06 12:32:00;;;;;;;29.17;19.33;;;;;;;;;;5042917;28;20503;-76
2021/08/06 12:34:36;;;;;;;26.75;18.10;;;;;;;;;;5042721;28;20048;-74
2021/08/06 12:37:07;;;;;;;28.00;16.90;;;;;;;;;;5044727;28;20037;-75
2021/08/06 12:39:36;;;;;;;28.88;17.40;;;;;;;;;;5044427;28;20106;-74
2021/08/06 12:42:20;;;;;;;24.73;17.20;;;;;;;;;;5025600;28;20059;-75
2021/08/06 12:45:01;;;;;;;23.27;15.38;;;;;;;;;;5044656;28;20821;-74
2021/08/06 12:47:39;;;;;;;25.63;16.33;;;;;;;;;;5025835;28;20411;-75
2021/08/06 12:50:08;;;;;;;25.13;14.50;;;;;;;;;;5041675;28;20090;-75
2021/08/06 12:52:40;;;;;;;21.20;13.73;;;;;;;;;;5043685;28;20415;-75
2021/08/06 12:55:26;;;;;;;19.40;12.63;;;;;;;;;;5042503;28;20065;-74
2021/08/06 12:57:56;;;;;;;19.02;12.20;;;;;;;;;;5041803;28;20044;-75
2021/08/06 13:00:37;;;;;;;16.33;11.13;;;;;;;;;;5042265;28;20133;-74
2021/08/06 13:03:13;;;;;;;18.77;11.70;;;;;;;;;;5043857;28;20499;-75
2021/08/06 13:05:46;;;;;;;19.88;12.55;;;;;;;;;;5042286;28;20057;-75
2021/08/06 13:08:20;;;;;;;16.17;12.18;;;;;;;;;;5043990;28;20507;-75
2021/08/06 13:11:03;;;;;;;18.05;11.88;;;;;;;;;;5042936;28;20116;-76
2021/08/06 13:13:34;;;;;;;20.80;12.10;;;;;;;;;;5041930;28;20045;-74
2021/08/06 13:16:02;;;;;;;15.52;10.43;;;;;;;;;;5043646;28;20562;-75
2021/08/06 13:18:30;;;;;;;18.65;10.63;;;;;;;;;;5043331;28;20510;-75
2021/08/06 13:20:57;;;;;;;16.85;11.00;;;;;;;;;;5044085;28;20041;-75
2021/08/06 13:23:25;;;;;;;14.85;9.18;;;;;;;;;;5042048;28;20041;-75
2021/08/06 13:25:52;;;;;;;13.85;8.82;;;;;;;;;;5043440;28;20063;-76
2021/08/06 13:28:19;;;;;;;13.85;9.07;;;;;;;;;;5043756;28;20052;-73
2021/08/06 13:30:46;;;;;;;15.52;9.65;;;;;;;;;;5043416;28;20045;-73
2021/08/06 13:33:14;;;;;;;14.50;9.63;;;;;;;;;;5044023;28;20033;-74
2021/08/06 13:35:41;;;;;;;14.23;10.00;;;;;;;;;;5043262;28;20063;-75
2021/08/06 13:38:09;;;;;;;24.45;15.07;;;;;;;;;;5043377;28;20052;-74
2021/08/06 13:40:37;;;;;;;22.88;13.93;;;;;;;;;;5042250;28;20056;-76
2021/08/06 13:43:06;;;;;;;25.05;16.40;;;;;;;;;;5042940;28;20075;-74
2021/08/06 13:45:33;;;;;;;28.10;17.73;;;;;;;;;;5043278;28;20047;-75
2021/08/06 13:48:01;;;;;;;28.38;17.70;;;;;;;;;;5041661;28;20563;-74
2021/08/06 13:50:29;;;;;;;30.08;18.77;;;;;;;;;;5042061;28;20045;-75
2021/08/06 13:52:56;;;;;;;34.10;21.20;;;;;;;;;;5042717;28;20064;-75
2021/08/06 13:55:24;;;;;;;49.30;31.85;;;;;;;;;;5043424;28;20052;-75
2021/08/06 13:57:51;;;;;;;59.80;37.20;;;;;;;;;;5042718;28;20501;-75
2021/08/06 14:00:18;;;;;;;63.50;37.13;;;;;;;;;;5042871;28;20056;-76
2021/08/06 14:02:46;;;;;;;71.00;41.83;;;;;;;;;;5042050;28;20053;-74
2021/08/06 14:05:14;;;;;;;66.63;42.15;;;;;;;;;;5041299;28;20048;-76
2021/08/06 14:07:42;;;;;;;68.75;41.33;;;;;;;;;;5043221;28;20041;-75
2021/08/06 14:10:10;;;;;;;65.60;40.47;;;;;;;;;;5043521;28;20049;-75
2021/08/06 14:12:37;;;;;;;65.57;39.33;;;;;;;;;;5041865;28;20517;-74
2021/08/06 14:15:04;;;;;;;61.65;40.97;;;;;;;;;;5042814;28;20128;-76
2021/08/06 14:17:31;;;;;;;62.30;42.35;;;;;;;;;;5042970;28;20041;-75
2021/08/06 14:19:58;;;;;;;63.25;44.17;;;;;;;;;;5039684;28;20491;-75
2021/08/06 14:22:26;;;;;;;67.45;43.13;;;;;;;;;;5051296;28;20044;-74
2021/08/06 14:24:53;;;;;;;57.65;39.28;;;;;;;;;;5042658;28;20064;-74
2021/08/06 14:27:21;;;;;;;61.30;40.58;;;;;;;;;;5041493;28;20048;-74
2021/08/06 14:29:48;;;;;;;57.65;38.78;;;;;;;;;;5042925;28;20071;-75
2021/08/06 14:32:16;;;;;;;61.08;38.90;;;;;;;;;;5042893;28;20049;-75
2021/08/06 14:34:45;;;;;;;68.55;49.38;;;;;;;;;;5043054;28;20178;-74
2021/08/06 14:37:14;;;;;;;71.97;44.17;;;;;;;;;;5042842;28;20086;-74